Ajaccio, France

3:40 PM CEST on July 25, 2014 (GMT +0200)
Campo Dell' Oro (LFKJ) Elev 30 ft | 41.92 °N, 8.80 °E | Change Station

Current weather conditions updated 10 minutes ago

Mostly Cloudy
Mostly Cloudy
79 °F
Feels Like 79 °F
N
6
Wind Variable Wind from SW

Today is forecast to be nearly the same temperature as yesterday.

Today
High -- | Low -- °F
--% Chance of Precip.
Yesterday
High -- | Low -- °F
Precip. -- in
6:11 AM 8:50 PM
Waning Crescent, 2% visible
Pressure 29.89 in
Visibility 6.2 miles
Clouds Few 4000 ft
Few 4300 ft
Mostly Cloudy 25000 ft
Dew Point 70 °F
Humidity 74%
Rainfall 0.00 in
Snow Depth Not available.
UV 5 out of 12
Pollen Not available.
Air Quality Not available.
Flu Activity Not available.
METAR LFKJ 251330Z 23005KT 190V250 9999 FEW040 FEW043CB BKN250 26/21 Q1012 NOSIG

More Conditions Fewer Conditions

Pressure 29.89 in
Visibility 6.2 miles
Clouds Few 4000 ft
Few 4300 ft
Mostly Cloudy 25000 ft
Dew Point 70 °F
Humidity 74%
Rainfall 0.00 in
Snow Depth Not available.
UV 5 out of 12
Pollen Not available.
Air Quality Not available.
Flu Activity Not available.
METAR LFKJ 251330Z 23005KT 190V250 9999 FEW040 FEW043CB BKN250 26/21 Q1012 NOSIG

More Conditions Fewer Conditions

10-Day Weather Forecast

Almanac

Astronomy

Jul. 25, 2014 Rise Set
Actual Time 6:11 AM CEST 8:50 PM CEST
Civil Twilight 5:39 AM CEST 9:22 PM CEST
Nautical Twilight 4:58 AM CEST 10:03 PM CEST
Astronomical Twilight 4:12 AM CEST 10:48 PM CEST
Moon 4:57 AM CEST 7:35 PM CEST
Length of Visible Light 15h 43m
Length of Day
14h 39m
Tomorrow will be 1m 54s shorter.
Waning Crescent, 2% of the Moon is Illuminated
Today
Waning Crescent
Jul 26
New
Aug 3
First Quarter
Aug 10
Full
Aug 17
Last Quarter

Yesterday's Extremes

Country Highs Country Lows

Community

WunderPhotos

Upload Photos

1,737,324 photos uploaded!

Nearby

Snow Depth

Not available.

Earthquake Activity

City Distance Mag. Time & Date
No recent earthquake activity has been reported nearby.
Minimum magnitude displayed is 2.5.

Coastal Water Temperatures

Place Temperature
No Stations Reporting

Nearby Weather Stations

There are no personal weather stations in this area.